sensor_id;sensor_type;location;lat;lon;timestamp;P1;durP1;ratioP1;P2;durP2;ratioP2
35506;SDS011;36461;52.018;21.036;2023-04-09T00:01:05;14.90;;;11.80;;
35506;SDS011;36461;52.018;21.036;2023-04-09T00:03:36;17.60;;;11.90;;
35506;SDS011;36461;52.018;21.036;2023-04-09T00:06:05;14.40;;;11.60;;
35506;SDS011;36461;52.018;21.036;2023-04-09T00:08:34;17.50;;;12.90;;
35506;SDS011;36461;52.018;21.036;2023-04-09T00:11:02;17.30;;;13.00;;
35506;SDS011;36461;52.018;21.036;2023-04-09T00:13:31;15.60;;;11.60;;
35506;SDS011;36461;52.018;21.036;2023-04-09T00:16:06;17.20;;;12.10;;
35506;SDS011;36461;52.018;21.036;2023-04-09T00:18:35;18.60;;;13.40;;
35506;SDS011;36461;52.018;21.036;2023-04-09T00:21:03;20.00;;;13.00;;
35506;SDS011;36461;52.018;21.036;2023-04-09T00:23:33;15.10;;;11.50;;
35506;SDS011;36461;52.018;21.036;2023-04-09T00:26:01;16.30;;;11.30;;
35506;SDS011;36461;52.018;21.036;2023-04-09T00:28:29;14.80;;;10.20;;
35506;SDS011;36461;52.018;21.036;2023-04-09T00:30:58;14.50;;;10.90;;
35506;SDS011;36461;52.018;21.036;2023-04-09T00:33:26;18.10;;;12.50;;
35506;SDS011;36461;52.018;21.036;2023-04-09T00:35:54;21.20;;;15.10;;
35506;SDS011;36461;52.018;21.036;2023-04-09T00:38:23;20.70;;;13.60;;
35506;SDS011;36461;52.018;21.036;2023-04-09T00:40:51;20.80;;;14.50;;
35506;SDS011;36461;52.018;21.036;2023-04-09T00:43:19;17.50;;;12.50;;
35506;SDS011;36461;52.018;21.036;2023-04-09T00:45:48;15.90;;;12.30;;
35506;SDS011;36461;52.018;21.036;2023-04-09T00:48:16;18.40;;;12.30;;
35506;SDS011;36461;52.018;21.036;2023-04-09T00:50:45;15.30;;;11.70;;
35506;SDS011;36461;52.018;21.036;2023-04-09T00:53:13;14.20;;;10.90;;
35506;SDS011;36461;52.018;21.036;2023-04-09T00:55:42;12.90;;;10.30;;
35506;SDS011;36461;52.018;21.036;2023-04-09T00:58:13;13.90;;;10.20;;
35506;SDS011;36461;52.018;21.036;2023-04-09T01:00:41;13.00;;;10.10;;
35506;SDS011;36461;52.018;21.036;2023-04-09T01:03:09;14.10;;;10.20;;
35506;SDS011;36461;52.018;21.036;2023-04-09T01:05:41;14.30;;;10.80;;
35506;SDS011;36461;52.018;21.036;2023-04-09T01:16:46;15.10;;;10.60;;
35506;SDS011;36461;52.018;21.036;2023-04-09T01:19:38;13.70;;;10.20;;
35506;SDS011;36461;52.018;21.036;2023-04-09T01:22:24;13.60;;;10.00;;
35506;SDS011;36461;52.018;21.036;2023-04-09T01:25:03;11.30;;;8.90;;
35506;SDS011;36461;52.018;21.036;2023-04-09T01:30:47;10.90;;;8.20;;
35506;SDS011;36461;52.018;21.036;2023-04-09T01:33:18;10.80;;;8.50;;
35506;SDS011;36461;52.018;21.036;2023-04-09T01:35:48;11.50;;;8.40;;
35506;SDS011;36461;52.018;21.036;2023-04-09T01:38:18;12.20;;;9.30;;
35506;SDS011;36461;52.018;21.036;2023-04-09T01:40:48;12.40;;;9.70;;
35506;SDS011;36461;52.018;21.036;2023-04-09T01:43:17;13.40;;;9.20;;
35506;SDS011;36461;52.018;21.036;2023-04-09T01:45:46;13.40;;;9.50;;
35506;SDS011;36461;52.018;21.036;2023-04-09T01:48:15;13.10;;;10.00;;
35506;SDS011;36461;52.018;21.036;2023-04-09T01:50:43;10.40;;;8.60;;
35506;SDS011;36461;52.018;21.036;2023-04-09T01:53:12;13.20;;;9.70;;
35506;SDS011;36461;52.018;21.036;2023-04-09T01:55:40;12.40;;;9.00;;
35506;SDS011;36461;52.018;21.036;2023-04-09T01:58:08;12.70;;;8.80;;
35506;SDS011;36461;52.018;21.036;2023-04-09T02:00:38;12.90;;;9.70;;
35506;SDS011;36461;52.018;21.036;2023-04-09T02:03:14;15.00;;;10.00;;
35506;SDS011;36461;52.018;21.036;2023-04-09T02:05:52;13.50;;;9.40;;
35506;SDS011;36461;52.018;21.036;2023-04-09T02:08:24;13.90;;;10.30;;
35506;SDS011;36461;52.018;21.036;2023-04-09T02:10:55;14.30;;;10.60;;
35506;SDS011;36461;52.018;21.036;2023-04-09T02:13:25;12.40;;;9.80;;
35506;SDS011;36461;52.018;21.036;2023-04-09T02:15:57;14.80;;;10.80;;
35506;SDS011;36461;52.018;21.036;2023-04-09T02:18:27;12.80;;;9.80;;
35506;SDS011;36461;52.018;21.036;2023-04-09T02:20:57;12.50;;;9.80;;
35506;SDS011;36461;52.018;21.036;2023-04-09T02:23:26;12.00;;;9.40;;
35506;SDS011;36461;52.018;21.036;2023-04-09T02:25:54;14.30;;;10.20;;
35506;SDS011;36461;52.018;21.036;2023-04-09T02:28:23;12.20;;;9.60;;
35506;SDS011;36461;52.018;21.036;2023-04-09T02:30:51;12.90;;;10.20;;
35506;SDS011;36461;52.018;21.036;2023-04-09T02:33:19;14.50;;;10.30;;
35506;SDS011;36461;52.018;21.036;2023-04-09T02:35:47;14.60;;;10.50;;
35506;SDS011;36461;52.018;21.036;2023-04-09T02:38:15;15.10;;;10.90;;
35506;SDS011;36461;52.018;21.036;2023-04-09T02:40:43;16.00;;;11.50;;
35506;SDS011;36461;52.018;21.036;2023-04-09T02:43:12;16.50;;;12.10;;
35506;SDS011;36461;52.018;21.036;2023-04-09T02:45:40;14.20;;;11.00;;
35506;SDS011;36461;52.018;21.036;2023-04-09T02:48:08;14.60;;;11.00;;
35506;SDS011;36461;52.018;21.036;2023-04-09T02:50:36;14.10;;;10.30;;
35506;SDS011;36461;52.018;21.036;2023-04-09T02:53:04;13.30;;;10.10;;
35506;SDS011;36461;52.018;21.036;2023-04-09T02:55:32;12.90;;;10.20;;
35506;SDS011;36461;52.018;21.036;2023-04-09T02:58:00;12.20;;;9.70;;
35506;SDS011;36461;52.018;21.036;2023-04-09T03:00:28;13.40;;;9.80;;
35506;SDS011;36461;52.018;21.036;2023-04-09T03:02:56;13.40;;;10.60;;
35506;SDS011;36461;52.018;21.036;2023-04-09T03:05:25;15.90;;;12.00;;
35506;SDS011;36461;52.018;21.036;2023-04-09T03:07:53;15.10;;;11.40;;
35506;SDS011;36461;52.018;21.036;2023-04-09T03:10:21;15.90;;;12.10;;
35506;SDS011;36461;52.018;21.036;2023-04-09T03:12:49;18.90;;;12.40;;
35506;SDS011;36461;52.018;21.036;2023-04-09T03:15:17;14.30;;;11.10;;
35506;SDS011;36461;52.018;21.036;2023-04-09T03:17:45;16.10;;;10.90;;
35506;SDS011;36461;52.018;21.036;2023-04-09T03:20:14;13.90;;;10.30;;
35506;SDS011;36461;52.018;21.036;2023-04-09T03:22:42;12.20;;;9.80;;
35506;SDS011;36461;52.018;21.036;2023-04-09T03:27:48;14.30;;;9.80;;
35506;SDS011;36461;52.018;21.036;2023-04-09T03:30:22;13.30;;;9.90;;
35506;SDS011;36461;52.018;21.036;2023-04-09T03:32:50;14.50;;;10.30;;
35506;SDS011;36461;52.018;21.036;2023-04-09T03:35:19;14.30;;;10.40;;
35506;SDS011;36461;52.018;21.036;2023-04-09T03:37:49;14.10;;;10.80;;
35506;SDS011;36461;52.018;21.036;2023-04-09T03:40:17;14.90;;;11.20;;
35506;SDS011;36461;52.018;21.036;2023-04-09T03:42:45;14.20;;;11.20;;
35506;SDS011;36461;52.018;21.036;2023-04-09T03:45:14;12.50;;;10.00;;
35506;SDS011;36461;52.018;21.036;2023-04-09T03:47:45;14.80;;;11.20;;
35506;SDS011;36461;52.018;21.036;2023-04-09T03:50:13;13.80;;;9.60;;
35506;SDS011;36461;52.018;21.036;2023-04-09T03:52:50;12.00;;;8.90;;
35506;SDS011;36461;52.018;21.036;2023-04-09T03:55:19;12.30;;;9.00;;
35506;SDS011;36461;52.018;21.036;2023-04-09T03:57:47;11.80;;;9.10;;
35506;SDS011;36461;52.018;21.036;2023-04-09T04:00:17;12.90;;;9.20;;
35506;SDS011;36461;52.018;21.036;2023-04-09T04:03:04;13.00;;;9.10;;
35506;SDS011;36461;52.018;21.036;2023-04-09T04:05:48;13.60;;;9.80;;
35506;SDS011;36461;52.018;21.036;2023-04-09T04:08:16;13.60;;;9.60;;
35506;SDS011;36461;52.018;21.036;2023-04-09T04:10:45;11.50;;;9.00;;
35506;SDS011;36461;52.018;21.036;2023-04-09T04:13:14;11.00;;;8.70;;
35506;SDS011;36461;52.018;21.036;2023-04-09T04:15:48;11.50;;;9.00;;
35506;SDS011;36461;52.018;21.036;2023-04-09T04:18:20;13.80;;;9.60;;
35506;SDS011;36461;52.018;21.036;2023-04-09T04:20:50;14.20;;;10.80;;
35506;SDS011;36461;52.018;21.036;2023-04-09T04:23:18;14.20;;;10.40;;
35506;SDS011;36461;52.018;21.036;2023-04-09T04:26:08;13.60;;;10.20;;
35506;SDS011;36461;52.018;21.036;2023-04-09T04:28:38;13.70;;;10.60;;
35506;SDS011;36461;52.018;21.036;2023-04-09T04:31:09;15.00;;;11.00;;
35506;SDS011;36461;52.018;21.036;2023-04-09T04:33:40;14.50;;;10.90;;
35506;SDS011;36461;52.018;21.036;2023-04-09T04:36:13;13.90;;;10.40;;
35506;SDS011;36461;52.018;21.036;2023-04-09T04:38:44;14.00;;;10.00;;
35506;SDS011;36461;52.018;21.036;2023-04-09T04:41:19;12.50;;;9.90;;
35506;SDS011;36461;52.018;21.036;2023-04-09T04:43:55;12.10;;;9.80;;
35506;SDS011;36461;52.018;21.036;2023-04-09T04:46:24;14.60;;;10.10;;
35506;SDS011;36461;52.018;21.036;2023-04-09T04:48:52;13.80;;;11.10;;
35506;SDS011;36461;52.018;21.036;2023-04-09T04:51:21;14.40;;;10.90;;
35506;SDS011;36461;52.018;21.036;2023-04-09T04:53:59;15.00;;;11.30;;
35506;SDS011;36461;52.018;21.036;2023-04-09T04:56:28;13.90;;;11.00;;
35506;SDS011;36461;52.018;21.036;2023-04-09T04:59:07;17.90;;;12.50;;
35506;SDS011;36461;52.018;21.036;2023-04-09T05:01:46;14.70;;;12.10;;
35506;SDS011;36461;52.018;21.036;2023-04-09T05:04:14;15.10;;;11.30;;
35506;SDS011;36461;52.018;21.036;2023-04-09T05:06:42;15.70;;;11.40;;
35506;SDS011;36461;52.018;21.036;2023-04-09T05:09:13;12.60;;;9.90;;
35506;SDS011;36461;52.018;21.036;2023-04-09T05:11:48;13.10;;;10.30;;
35506;SDS011;36461;52.018;21.036;2023-04-09T05:14:18;23.00;;;16.70;;
35506;SDS011;36461;52.018;21.036;2023-04-09T05:16:48;20.80;;;15.80;;
35506;SDS011;36461;52.018;21.036;2023-04-09T05:19:18;23.10;;;17.00;;
35506;SDS011;36461;52.018;21.036;2023-04-09T05:21:46;23.10;;;17.60;;
35506;SDS011;36461;52.018;21.036;2023-04-09T05:24:19;19.70;;;14.60;;
35506;SDS011;36461;52.018;21.036;2023-04-09T05:26:47;19.10;;;13.80;;
35506;SDS011;36461;52.018;21.036;2023-04-09T05:29:15;15.10;;;11.70;;
35506;SDS011;36461;52.018;21.036;2023-04-09T05:31:44;15.50;;;12.20;;
35506;SDS011;36461;52.018;21.036;2023-04-09T05:34:45;15.00;;;12.10;;
35506;SDS011;36461;52.018;21.036;2023-04-09T05:37:14;16.00;;;12.20;;
35506;SDS011;36461;52.018;21.036;2023-04-09T05:39:46;14.60;;;11.30;;
35506;SDS011;36461;52.018;21.036;2023-04-09T05:42:14;16.20;;;11.90;;
35506;SDS011;36461;52.018;21.036;2023-04-09T05:45:11;17.90;;;13.10;;
35506;SDS011;36461;52.018;21.036;2023-04-09T05:47:45;20.20;;;15.10;;
35506;SDS011;36461;52.018;21.036;2023-04-09T05:50:19;19.10;;;14.10;;
35506;SDS011;36461;52.018;21.036;2023-04-09T05:52:48;17.80;;;13.60;;
35506;SDS011;36461;52.018;21.036;2023-04-09T05:55:17;20.20;;;15.70;;
35506;SDS011;36461;52.018;21.036;2023-04-09T05:57:51;20.70;;;14.90;;
35506;SDS011;36461;52.018;21.036;2023-04-09T06:00:20;19.10;;;14.90;;
35506;SDS011;36461;52.018;21.036;2023-04-09T06:02:49;19.50;;;13.80;;
35506;SDS011;36461;52.018;21.036;2023-04-09T06:05:17;18.90;;;13.90;;
35506;SDS011;36461;52.018;21.036;2023-04-09T06:07:47;17.60;;;13.70;;
35506;SDS011;36461;52.018;21.036;2023-04-09T06:10:15;18.80;;;14.20;;
35506;SDS011;36461;52.018;21.036;2023-04-09T06:12:43;17.30;;;13.80;;
35506;SDS011;36461;52.018;21.036;2023-04-09T06:15:12;16.90;;;13.90;;
35506;SDS011;36461;52.018;21.036;2023-04-09T06:17:40;16.10;;;12.70;;
35506;SDS011;36461;52.018;21.036;2023-04-09T06:20:08;16.40;;;13.20;;
35506;SDS011;36461;52.018;21.036;2023-04-09T06:22:37;13.80;;;11.60;;
35506;SDS011;36461;52.018;21.036;2023-04-09T06:25:05;14.30;;;11.70;;
35506;SDS011;36461;52.018;21.036;2023-04-09T06:27:33;14.60;;;11.20;;
35506;SDS011;36461;52.018;21.036;2023-04-09T06:30:02;12.70;;;10.10;;
35506;SDS011;36461;52.018;21.036;2023-04-09T06:32:30;11.00;;;9.20;;
35506;SDS011;36461;52.018;21.036;2023-04-09T06:35:07;11.60;;;8.80;;
35506;SDS011;36461;52.018;21.036;2023-04-09T06:37:37;12.00;;;9.20;;
35506;SDS011;36461;52.018;21.036;2023-04-09T06:40:06;11.60;;;9.10;;
35506;SDS011;36461;52.018;21.036;2023-04-09T06:42:35;12.20;;;9.40;;
35506;SDS011;36461;52.018;21.036;2023-04-09T06:45:14;11.70;;;9.40;;
35506;SDS011;36461;52.018;21.036;2023-04-09T06:47:42;11.50;;;8.60;;
35506;SDS011;36461;52.018;21.036;2023-04-09T06:50:12;11.80;;;8.80;;
35506;SDS011;36461;52.018;21.036;2023-04-09T06:52:40;10.40;;;8.50;;
35506;SDS011;36461;52.018;21.036;2023-04-09T06:55:08;9.90;;;8.10;;
35506;SDS011;36461;52.018;21.036;2023-04-09T06:57:37;9.70;;;7.80;;
35506;SDS011;36461;52.018;21.036;2023-04-09T07:00:06;11.10;;;8.30;;
35506;SDS011;36461;52.018;21.036;2023-04-09T07:02:35;10.40;;;7.80;;
35506;SDS011;36461;52.018;21.036;2023-04-09T07:05:04;9.40;;;7.60;;
35506;SDS011;36461;52.018;21.036;2023-04-09T07:07:33;9.70;;;8.00;;
35506;SDS011;36461;52.018;21.036;2023-04-09T07:10:01;9.20;;;7.90;;
35506;SDS011;36461;52.018;21.036;2023-04-09T07:12:30;12.00;;;8.70;;
35506;SDS011;36461;52.018;21.036;2023-04-09T07:15:00;10.60;;;8.70;;
35506;SDS011;36461;52.018;21.036;2023-04-09T07:17:29;9.00;;;8.00;;
35506;SDS011;36461;52.018;21.036;2023-04-09T07:19:58;9.40;;;7.70;;
35506;SDS011;36461;52.018;21.036;2023-04-09T07:22:27;9.60;;;7.20;;
35506;SDS011;36461;52.018;21.036;2023-04-09T07:24:55;8.90;;;7.30;;
35506;SDS011;36461;52.018;21.036;2023-04-09T07:27:24;8.50;;;7.20;;
35506;SDS011;36461;52.018;21.036;2023-04-09T07:29:54;7.80;;;6.80;;
35506;SDS011;36461;52.018;21.036;2023-04-09T07:32:24;8.20;;;7.30;;
35506;SDS011;36461;52.018;21.036;2023-04-09T07:34:55;10.80;;;7.30;;
35506;SDS011;36461;52.018;21.036;2023-04-09T07:37:24;8.60;;;7.30;;
35506;SDS011;36461;52.018;21.036;2023-04-09T07:39:53;8.00;;;6.80;;
35506;SDS011;36461;52.018;21.036;2023-04-09T07:42:22;8.40;;;6.90;;
35506;SDS011;36461;52.018;21.036;2023-04-09T07:44:50;8.80;;;7.20;;
35506;SDS011;36461;52.018;21.036;2023-04-09T07:47:18;9.00;;;7.20;;
35506;SDS011;36461;52.018;21.036;2023-04-09T07:49:46;9.00;;;7.60;;
35506;SDS011;36461;52.018;21.036;2023-04-09T07:52:14;10.20;;;7.50;;
35506;SDS011;36461;52.018;21.036;2023-04-09T07:54:42;8.90;;;7.60;;
35506;SDS011;36461;52.018;21.036;2023-04-09T07:57:10;8.70;;;7.20;;
35506;SDS011;36461;52.018;21.036;2023-04-09T07:59:39;8.60;;;7.70;;
35506;SDS011;36461;52.018;21.036;2023-04-09T08:02:07;9.40;;;8.20;;
35506;SDS011;36461;52.018;21.036;2023-04-09T08:04:36;10.60;;;8.90;;
35506;SDS011;36461;52.018;21.036;2023-04-09T08:07:05;10.90;;;8.80;;
35506;SDS011;36461;52.018;21.036;2023-04-09T08:09:33;10.60;;;8.70;;
35506;SDS011;36461;52.018;21.036;2023-04-09T08:12:01;10.00;;;8.70;;
35506;SDS011;36461;52.018;21.036;2023-04-09T08:14:29;9.60;;;8.10;;
35506;SDS011;36461;52.018;21.036;2023-04-09T08:16:57;10.40;;;8.50;;
35506;SDS011;36461;52.018;21.036;2023-04-09T08:19:26;10.40;;;8.90;;
35506;SDS011;36461;52.018;21.036;2023-04-09T08:21:55;11.50;;;9.50;;
35506;SDS011;36461;52.018;21.036;2023-04-09T08:24:23;10.70;;;8.80;;
35506;SDS011;36461;52.018;21.036;2023-04-09T08:26:51;11.50;;;9.40;;
35506;SDS011;36461;52.018;21.036;2023-04-09T08:29:19;10.40;;;9.30;;
35506;SDS011;36461;52.018;21.036;2023-04-09T08:31:48;9.00;;;8.10;;
35506;SDS011;36461;52.018;21.036;2023-04-09T08:34:16;10.60;;;8.90;;
35506;SDS011;36461;52.018;21.036;2023-04-09T08:36:47;11.50;;;8.90;;
35506;SDS011;36461;52.018;21.036;2023-04-09T08:39:16;11.20;;;9.00;;
35506;SDS011;36461;52.018;21.036;2023-04-09T08:41:48;10.70;;;8.50;;
35506;SDS011;36461;52.018;21.036;2023-04-09T08:44:18;9.90;;;7.50;;
35506;SDS011;36461;52.018;21.036;2023-04-09T08:46:48;11.50;;;9.10;;
35506;SDS011;36461;52.018;21.036;2023-04-09T08:49:17;8.90;;;7.60;;
35506;SDS011;36461;52.018;21.036;2023-04-09T08:51:49;9.40;;;7.60;;
35506;SDS011;36461;52.018;21.036;2023-04-09T08:54:17;10.10;;;8.40;;
35506;SDS011;36461;52.018;21.036;2023-04-09T08:56:48;8.90;;;7.90;;
35506;SDS011;36461;52.018;21.036;2023-04-09T08:59:16;9.10;;;7.90;;
35506;SDS011;36461;52.018;21.036;2023-04-09T09:01:47;9.00;;;7.40;;
35506;SDS011;36461;52.018;21.036;2023-04-09T09:04:21;10.20;;;7.60;;
35506;SDS011;36461;52.018;21.036;2023-04-09T09:06:49;9.10;;;7.50;;
35506;SDS011;36461;52.018;21.036;2023-04-09T09:09:17;7.40;;;6.50;;
35506;SDS011;36461;52.018;21.036;2023-04-09T09:11:47;10.80;;;6.60;;
35506;SDS011;36461;52.018;21.036;2023-04-09T09:14:18;8.50;;;6.10;;
35506;SDS011;36461;52.018;21.036;2023-04-09T09:22:01;7.10;;;5.50;;
35506;SDS011;36461;52.018;21.036;2023-04-09T09:24:33;7.40;;;5.50;;
35506;SDS011;36461;52.018;21.036;2023-04-09T09:27:33;8.30;;;6.50;;
35506;SDS011;36461;52.018;21.036;2023-04-09T09:30:07;7.90;;;6.00;;
35506;SDS011;36461;52.018;21.036;2023-04-09T09:32:37;9.20;;;5.60;;
35506;SDS011;36461;52.018;21.036;2023-04-09T09:35:06;7.20;;;5.50;;
35506;SDS011;36461;52.018;21.036;2023-04-09T09:37:34;9.20;;;6.20;;
35506;SDS011;36461;52.018;21.036;2023-04-09T09:40:03;8.90;;;6.10;;
35506;SDS011;36461;52.018;21.036;2023-04-09T09:42:32;7.40;;;6.10;;
35506;SDS011;36461;52.018;21.036;2023-04-09T09:45:00;7.60;;;6.50;;
35506;SDS011;36461;52.018;21.036;2023-04-09T09:47:44;9.80;;;7.20;;
35506;SDS011;36461;52.018;21.036;2023-04-09T09:50:13;9.20;;;7.10;;
35506;SDS011;36461;52.018;21.036;2023-04-09T09:52:42;7.90;;;6.60;;
35506;SDS011;36461;52.018;21.036;2023-04-09T09:55:13;9.20;;;7.00;;
35506;SDS011;36461;52.018;21.036;2023-04-09T09:57:43;9.30;;;6.60;;
35506;SDS011;36461;52.018;21.036;2023-04-09T10:00:15;7.70;;;6.10;;
35506;SDS011;36461;52.018;21.036;2023-04-09T10:02:47;7.50;;;5.90;;
35506;SDS011;36461;52.018;21.036;2023-04-09T10:05:24;8.00;;;6.80;;
35506;SDS011;36461;52.018;21.036;2023-04-09T10:07:54;8.00;;;6.50;;
35506;SDS011;36461;52.018;21.036;2023-04-09T10:10:24;8.90;;;7.00;;
35506;SDS011;36461;52.018;21.036;2023-04-09T10:12:54;7.30;;;5.80;;
35506;SDS011;36461;52.018;21.036;2023-04-09T10:15:23;8.00;;;6.20;;
35506;SDS011;36461;52.018;21.036;2023-04-09T10:17:53;6.50;;;5.30;;
35506;SDS011;36461;52.018;21.036;2023-04-09T10:20:33;7.40;;;6.30;;
35506;SDS011;36461;52.018;21.036;2023-04-09T10:23:10;8.10;;;6.70;;
35506;SDS011;36461;52.018;21.036;2023-04-09T10:25:46;7.20;;;5.90;;
35506;SDS011;36461;52.018;21.036;2023-04-09T10:28:15;7.40;;;6.20;;
35506;SDS011;36461;52.018;21.036;2023-04-09T10:30:45;8.70;;;6.30;;
35506;SDS011;36461;52.018;21.036;2023-04-09T10:33:14;8.10;;;6.60;;
35506;SDS011;36461;52.018;21.036;2023-04-09T10:35:45;9.00;;;6.40;;
35506;SDS011;36461;52.018;21.036;2023-04-09T10:38:15;7.60;;;6.30;;
35506;SDS011;36461;52.018;21.036;2023-04-09T10:40:51;8.10;;;6.60;;
35506;SDS011;36461;52.018;21.036;2023-04-09T10:43:20;7.00;;;6.30;;
35506;SDS011;36461;52.018;21.036;2023-04-09T10:45:48;8.20;;;6.20;;
35506;SDS011;36461;52.018;21.036;2023-04-09T10:48:21;6.50;;;5.90;;
35506;SDS011;36461;52.018;21.036;2023-04-09T10:50:52;7.30;;;6.00;;
35506;SDS011;36461;52.018;21.036;2023-04-09T10:53:22;6.50;;;5.90;;
35506;SDS011;36461;52.018;21.036;2023-04-09T10:55:52;8.10;;;5.50;;
35506;SDS011;36461;52.018;21.036;2023-04-09T10:58:21;5.80;;;4.80;;
35506;SDS011;36461;52.018;21.036;2023-04-09T11:00:49;7.60;;;5.00;;
35506;SDS011;36461;52.018;21.036;2023-04-09T11:03:25;7.50;;;5.50;;
35506;SDS011;36461;52.018;21.036;2023-04-09T11:08:38;6.80;;;5.40;;
35506;SDS011;36461;52.018;21.036;2023-04-09T11:11:06;7.20;;;5.30;;
35506;SDS011;36461;52.018;21.036;2023-04-09T11:13:34;6.20;;;5.10;;
35506;SDS011;36461;52.018;21.036;2023-04-09T11:16:03;6.30;;;4.90;;
35506;SDS011;36461;52.018;21.036;2023-04-09T11:18:34;6.40;;;5.20;;
35506;SDS011;36461;52.018;21.036;2023-04-09T11:21:04;6.90;;;5.60;;
35506;SDS011;36461;52.018;21.036;2023-04-09T11:23:32;5.90;;;5.10;;
35506;SDS011;36461;52.018;21.036;2023-04-09T11:26:00;6.20;;;5.00;;
35506;SDS011;36461;52.018;21.036;2023-04-09T11:28:29;6.10;;;5.50;;
35506;SDS011;36461;52.018;21.036;2023-04-09T11:30:57;6.90;;;5.50;;
35506;SDS011;36461;52.018;21.036;2023-04-09T11:33:32;5.50;;;4.80;;
35506;SDS011;36461;52.018;21.036;2023-04-09T11:36:03;5.60;;;4.70;;
35506;SDS011;36461;52.018;21.036;2023-04-09T11:38:32;5.80;;;5.10;;
35506;SDS011;36461;52.018;21.036;2023-04-09T11:41:00;7.80;;;5.70;;
35506;SDS011;36461;52.018;21.036;2023-04-09T11:43:28;6.00;;;4.90;;
35506;SDS011;36461;52.018;21.036;2023-04-09T11:45:56;5.60;;;5.00;;
35506;SDS011;36461;52.018;21.036;2023-04-09T11:48:26;6.30;;;5.10;;
35506;SDS011;36461;52.018;21.036;2023-04-09T11:50:54;6.40;;;5.40;;
35506;SDS011;36461;52.018;21.036;2023-04-09T11:53:26;6.50;;;5.40;;
35506;SDS011;36461;52.018;21.036;2023-04-09T11:55:57;6.50;;;5.10;;
35506;SDS011;36461;52.018;21.036;2023-04-09T11:58:26;5.80;;;5.20;;
35506;SDS011;36461;52.018;21.036;2023-04-09T12:00:56;7.30;;;5.10;;
35506;SDS011;36461;52.018;21.036;2023-04-09T12:03:29;6.00;;;4.20;;
35506;SDS011;36461;52.018;21.036;2023-04-09T12:06:00;7.10;;;4.80;;
35506;SDS011;36461;52.018;21.036;2023-04-09T12:08:30;7.80;;;4.80;;
35506;SDS011;36461;52.018;21.036;2023-04-09T12:11:08;5.90;;;4.50;;
35506;SDS011;36461;52.018;21.036;2023-04-09T12:13:37;6.80;;;4.90;;
35506;SDS011;36461;52.018;21.036;2023-04-09T12:16:11;5.50;;;5.00;;
35506;SDS011;36461;52.018;21.036;2023-04-09T12:18:40;6.00;;;5.00;;
35506;SDS011;36461;52.018;21.036;2023-04-09T12:21:08;5.50;;;5.00;;
35506;SDS011;36461;52.018;21.036;2023-04-09T12:23:36;6.00;;;5.40;;
35506;SDS011;36461;52.018;21.036;2023-04-09T12:26:05;6.30;;;5.20;;
35506;SDS011;36461;52.018;21.036;2023-04-09T12:28:34;6.00;;;5.10;;
35506;SDS011;36461;52.018;21.036;2023-04-09T12:31:02;6.50;;;5.30;;
35506;SDS011;36461;52.018;21.036;2023-04-09T12:33:30;5.80;;;5.20;;
35506;SDS011;36461;52.018;21.036;2023-04-09T12:35:59;6.10;;;5.50;;
35506;SDS011;36461;52.018;21.036;2023-04-09T12:38:27;7.20;;;5.40;;
35506;SDS011;36461;52.018;21.036;2023-04-09T12:40:55;6.50;;;5.90;;
35506;SDS011;36461;52.018;21.036;2023-04-09T12:43:23;7.00;;;5.40;;
35506;SDS011;36461;52.018;21.036;2023-04-09T12:45:52;6.70;;;6.00;;
35506;SDS011;36461;52.018;21.036;2023-04-09T12:48:20;5.80;;;4.80;;
35506;SDS011;36461;52.018;21.036;2023-04-09T12:50:48;6.40;;;5.50;;
35506;SDS011;36461;52.018;21.036;2023-04-09T12:53:16;5.80;;;5.30;;
35506;SDS011;36461;52.018;21.036;2023-04-09T12:55:44;7.50;;;5.40;;
35506;SDS011;36461;52.018;21.036;2023-04-09T12:58:12;4.80;;;4.30;;
35506;SDS011;36461;52.018;21.036;2023-04-09T13:00:40;4.90;;;3.90;;
35506;SDS011;36461;52.018;21.036;2023-04-09T13:03:08;5.80;;;4.70;;
35506;SDS011;36461;52.018;21.036;2023-04-09T13:05:36;4.80;;;4.30;;
35506;SDS011;36461;52.018;21.036;2023-04-09T13:08:04;4.70;;;4.20;;
35506;SDS011;36461;52.018;21.036;2023-04-09T13:10:33;5.40;;;4.50;;
35506;SDS011;36461;52.018;21.036;2023-04-09T13:13:02;4.70;;;4.10;;
35506;SDS011;36461;52.018;21.036;2023-04-09T13:15:30;4.60;;;4.20;;
35506;SDS011;36461;52.018;21.036;2023-04-09T13:17:58;5.10;;;4.50;;
35506;SDS011;36461;52.018;21.036;2023-04-09T13:20:27;4.40;;;4.00;;
35506;SDS011;36461;52.018;21.036;2023-04-09T13:22:55;4.60;;;4.10;;
35506;SDS011;36461;52.018;21.036;2023-04-09T13:25:23;5.40;;;4.40;;
35506;SDS011;36461;52.018;21.036;2023-04-09T13:27:51;5.20;;;4.70;;
35506;SDS011;36461;52.018;21.036;2023-04-09T13:30:22;5.10;;;4.60;;
35506;SDS011;36461;52.018;21.036;2023-04-09T13:32:50;6.70;;;4.30;;
35506;SDS011;36461;52.018;21.036;2023-04-09T13:35:19;4.80;;;4.30;;
35506;SDS011;36461;52.018;21.036;2023-04-09T13:37:47;4.70;;;3.90;;
35506;SDS011;36461;52.018;21.036;2023-04-09T13:40:15;5.20;;;4.30;;
35506;SDS011;36461;52.018;21.036;2023-04-09T13:42:43;4.70;;;4.10;;
35506;SDS011;36461;52.018;21.036;2023-04-09T13:45:12;5.50;;;4.50;;
35506;SDS011;36461;52.018;21.036;2023-04-09T13:47:40;5.00;;;4.20;;
35506;SDS011;36461;52.018;21.036;2023-04-09T13:50:09;5.20;;;4.10;;
35506;SDS011;36461;52.018;21.036;2023-04-09T13:52:39;4.70;;;4.20;;
35506;SDS011;36461;52.018;21.036;2023-04-09T13:55:08;5.10;;;4.40;;
35506;SDS011;36461;52.018;21.036;2023-04-09T13:57:36;4.70;;;4.10;;
35506;SDS011;36461;52.018;21.036;2023-04-09T14:00:04;5.10;;;4.00;;
35506;SDS011;36461;52.018;21.036;2023-04-09T14:02:35;4.60;;;4.20;;
35506;SDS011;36461;52.018;21.036;2023-04-09T14:05:04;5.70;;;4.10;;
35506;SDS011;36461;52.018;21.036;2023-04-09T14:07:32;5.30;;;4.50;;
35506;SDS011;36461;52.018;21.036;2023-04-09T14:10:00;5.00;;;4.20;;
35506;SDS011;36461;52.018;21.036;2023-04-09T14:12:29;5.10;;;4.50;;
35506;SDS011;36461;52.018;21.036;2023-04-09T14:14:57;4.70;;;4.20;;
35506;SDS011;36461;52.018;21.036;2023-04-09T14:17:25;4.30;;;3.90;;
35506;SDS011;36461;52.018;21.036;2023-04-09T14:19:53;5.00;;;4.10;;
35506;SDS011;36461;52.018;21.036;2023-04-09T14:22:21;5.10;;;4.00;;
35506;SDS011;36461;52.018;21.036;2023-04-09T14:24:50;4.80;;;4.30;;
35506;SDS011;36461;52.018;21.036;2023-04-09T14:27:18;6.20;;;4.90;;
35506;SDS011;36461;52.018;21.036;2023-04-09T14:29:46;6.70;;;4.70;;
35506;SDS011;36461;52.018;21.036;2023-04-09T14:32:15;5.70;;;4.60;;
35506;SDS011;36461;52.018;21.036;2023-04-09T14:34:45;4.80;;;4.30;;
35506;SDS011;36461;52.018;21.036;2023-04-09T14:37:13;5.30;;;4.80;;
35506;SDS011;36461;52.018;21.036;2023-04-09T14:39:41;5.30;;;4.60;;
35506;SDS011;36461;52.018;21.036;2023-04-09T14:42:09;5.60;;;4.60;;
35506;SDS011;36461;52.018;21.036;2023-04-09T14:44:37;6.50;;;5.10;;
35506;SDS011;36461;52.018;21.036;2023-04-09T14:47:05;6.70;;;5.50;;
35506;SDS011;36461;52.018;21.036;2023-04-09T14:49:33;5.60;;;4.90;;
35506;SDS011;36461;52.018;21.036;2023-04-09T14:52:02;5.60;;;5.00;;
35506;SDS011;36461;52.018;21.036;2023-04-09T14:54:30;6.50;;;5.80;;
35506;SDS011;36461;52.018;21.036;2023-04-09T14:56:59;6.30;;;5.50;;
35506;SDS011;36461;52.018;21.036;2023-04-09T14:59:30;6.60;;;5.50;;
35506;SDS011;36461;52.018;21.036;2023-04-09T15:01:58;5.70;;;5.00;;